createdAt,value
2023-02-15T00:01:12.836Z,3.33
2023-02-15T00:03:40.864Z,3.34
2023-02-15T00:06:08.860Z,3.34
2023-02-15T00:08:36.729Z,3.35
2023-02-15T00:11:08.955Z,3.35
2023-02-15T00:13:37.209Z,3.34
2023-02-15T00:16:07.213Z,3.35
2023-02-15T00:18:35.466Z,3.35
2023-02-15T00:21:09.643Z,3.36
2023-02-15T00:23:37.790Z,3.36
2023-02-15T00:26:13.474Z,3.36
2023-02-15T00:28:42.185Z,3.36
2023-02-15T00:31:12.486Z,3.34
2023-02-15T00:33:40.748Z,3.34
2023-02-15T00:36:12.753Z,3.33
2023-02-15T00:39:18.338Z,3.33
2023-02-15T00:42:22.807Z,3.32
2023-02-15T00:44:50.635Z,3.32
2023-02-15T00:47:18.416Z,3.32
2023-02-15T00:49:46.191Z,3.31
2023-02-15T00:52:14.053Z,3.31
2023-02-15T00:54:41.796Z,3.30
2023-02-15T00:57:09.624Z,3.31
2023-02-15T00:59:37.426Z,3.32
2023-02-15T01:02:05.258Z,3.32
2023-02-15T01:04:33.192Z,3.31
2023-02-15T01:07:01.192Z,3.28
2023-02-15T01:09:28.975Z,3.26
2023-02-15T01:11:57.820Z,3.27
2023-02-15T01:14:27.972Z,3.27
2023-02-15T01:16:55.732Z,3.27
2023-02-15T01:19:23.601Z,3.27
2023-02-15T01:21:51.521Z,3.26
2023-02-15T01:24:19.429Z,3.27
2023-02-15T01:26:47.442Z,3.27
2023-02-15T01:29:15.357Z,3.26
2023-02-15T01:31:43.289Z,3.23
2023-02-15T01:34:11.202Z,3.22
2023-02-15T01:36:40.113Z,3.21
2023-02-15T01:39:45.692Z,3.21
2023-02-15T01:42:23.964Z,3.21
2023-02-15T01:44:53.357Z,3.21
2023-02-15T01:47:53.484Z,3.20
2023-02-15T01:50:45.809Z,3.19
2023-02-15T01:53:28.816Z,3.18
2023-02-15T01:56:00.160Z,3.19
2023-02-15T01:58:30.034Z,3.19
2023-02-15T02:04:06.404Z,3.19
2023-02-15T02:06:36.612Z,3.17
2023-02-15T02:09:04.971Z,3.15
2023-02-15T02:11:34.342Z,3.12
2023-02-15T02:14:02.178Z,3.10
2023-02-15T02:16:56.010Z,3.07
2023-02-15T02:19:37.498Z,3.02
2023-02-15T02:22:20.649Z,2.99
2023-02-15T02:24:57.553Z,2.94
2023-02-15T02:27:42.415Z,2.91
2023-02-15T02:30:26.875Z,2.90
2023-02-15T02:33:10.638Z,2.92
2023-02-15T02:35:50.697Z,2.93
2023-02-15T02:38:35.079Z,2.94
2023-02-15T02:41:18.678Z,2.94
2023-02-15T02:43:56.201Z,2.94
2023-02-15T02:46:42.940Z,2.93
2023-02-15T02:49:10.962Z,2.93
2023-02-15T02:51:38.870Z,2.93
2023-02-15T02:54:08.152Z,2.92
2023-02-15T02:56:40.382Z,2.91
2023-02-15T02:59:19.968Z,2.91
2023-02-15T03:01:55.038Z,2.90
2023-02-15T03:04:28.730Z,2.91
2023-02-15T03:07:01.660Z,2.88
2023-02-15T03:09:38.702Z,2.88
2023-02-15T03:12:07.057Z,2.87
2023-02-15T03:14:36.827Z,2.85
2023-02-15T03:17:08.981Z,2.83
2023-02-15T03:19:39.226Z,2.82
2023-02-15T03:22:15.223Z,2.79
2023-02-15T03:24:47.689Z,2.77
2023-02-15T03:27:22.874Z,2.76
2023-02-15T03:29:56.455Z,2.75
2023-02-15T03:32:26.823Z,2.72
2023-02-15T03:34:55.909Z,2.70
2023-02-15T03:37:58.591Z,2.68
2023-02-15T03:40:31.953Z,2.65
2023-02-15T03:43:07.410Z,2.63
2023-02-15T03:45:39.774Z,2.62
2023-02-15T03:48:08.744Z,2.60
2023-02-15T03:50:39.038Z,2.58
2023-02-15T03:53:11.513Z,2.58
2023-02-15T03:55:39.764Z,2.56
2023-02-15T03:58:08.232Z,2.56
2023-02-15T04:00:39.862Z,2.56
2023-02-15T04:03:20.517Z,2.57
2023-02-15T04:05:48.468Z,2.57
2023-02-15T04:08:16.333Z,2.57
2023-02-15T04:10:44.225Z,2.56
2023-02-15T04:13:12.068Z,2.54
2023-02-15T04:15:40.080Z,2.51
2023-02-15T04:18:07.906Z,2.49
2023-02-15T04:20:35.798Z,2.48
2023-02-15T04:23:07.214Z,2.45
2023-02-15T04:25:35.085Z,2.43
2023-02-15T04:28:02.927Z,2.40
2023-02-15T04:30:30.800Z,2.38
2023-02-15T04:32:58.639Z,2.36
2023-02-15T04:35:26.417Z,2.36
2023-02-15T04:37:54.434Z,2.34
2023-02-15T04:40:22.276Z,2.34
2023-02-15T04:42:50.136Z,2.34
2023-02-15T04:45:18.335Z,2.34
2023-02-15T04:47:46.379Z,2.33
2023-02-15T04:50:14.242Z,2.31
2023-02-15T04:52:42.121Z,2.30
2023-02-15T04:55:09.934Z,2.28
2023-02-15T04:57:37.862Z,2.28
2023-02-15T05:00:06.790Z,2.28
2023-02-15T05:02:34.649Z,2.26
2023-02-15T05:05:02.508Z,2.26
2023-02-15T05:07:30.582Z,2.25
2023-02-15T05:09:58.404Z,2.25
2023-02-15T05:12:26.249Z,2.25
2023-02-15T05:14:54.268Z,2.25
2023-02-15T05:17:22.122Z,2.24
2023-02-15T05:19:49.952Z,2.23
2023-02-15T05:22:18.015Z,2.20
2023-02-15T05:24:45.971Z,2.16
2023-02-15T05:27:13.992Z,2.15
2023-02-15T05:29:42.040Z,2.13
2023-02-15T05:32:10.020Z,2.13
2023-02-15T05:34:37.924Z,2.11
2023-02-15T05:37:05.832Z,2.09
2023-02-15T05:39:33.999Z,2.09
2023-02-15T05:42:02.011Z,2.09
2023-02-15T05:44:29.907Z,2.08
2023-02-15T05:46:57.887Z,2.08
2023-02-15T05:49:25.771Z,2.08
2023-02-15T05:51:53.554Z,2.08
2023-02-15T05:54:21.498Z,2.09
2023-02-15T05:56:49.330Z,2.09
2023-02-15T05:59:17.205Z,2.10
2023-02-15T06:01:45.156Z,2.10
2023-02-15T06:04:13.840Z,2.12
2023-02-15T06:06:41.683Z,2.14
2023-02-15T06:09:11.787Z,2.15
2023-02-15T06:11:39.977Z,2.15
2023-02-15T06:14:07.856Z,2.16
2023-02-15T06:16:35.681Z,2.17
2023-02-15T06:19:04.341Z,2.16
2023-02-15T06:21:32.201Z,2.17
2023-02-15T06:24:00.100Z,2.18
2023-02-15T06:26:27.966Z,2.19
2023-02-15T06:28:55.829Z,2.19
2023-02-15T06:31:23.834Z,2.19
2023-02-15T06:33:51.808Z,2.21
2023-02-15T06:36:20.521Z,2.23
2023-02-15T06:38:48.524Z,2.24
2023-02-15T06:41:16.415Z,2.25
2023-02-15T06:43:44.316Z,2.28
2023-02-15T06:46:12.263Z,2.30
2023-02-15T06:48:40.121Z,2.30
2023-02-15T06:51:08.091Z,2.32
2023-02-15T06:53:36.064Z,2.32
2023-02-15T06:56:05.946Z,2.34
2023-02-15T06:58:34.318Z,2.37
2023-02-15T07:01:02.244Z,2.38
2023-02-15T07:03:31.276Z,2.42
2023-02-15T07:06:01.472Z,2.47
2023-02-15T07:08:30.200Z,2.51
2023-02-15T07:10:58.427Z,2.54
2023-02-15T07:13:26.279Z,2.57
2023-02-15T07:15:54.195Z,2.59
2023-02-15T07:18:22.068Z,2.62
2023-02-15T07:20:49.941Z,2.64
2023-02-15T07:23:17.798Z,2.68
2023-02-15T07:25:45.740Z,2.71
2023-02-15T07:28:13.620Z,2.75
2023-02-15T07:30:41.785Z,2.77
2023-02-15T07:33:09.650Z,2.80
2023-02-15T07:35:37.458Z,2.84
2023-02-15T07:38:05.284Z,2.87
2023-02-15T07:40:33.313Z,2.92
2023-02-15T07:43:01.349Z,2.94
2023-02-15T07:45:29.235Z,2.98
2023-02-15T07:47:57.152Z,2.99
2023-02-15T07:50:25.013Z,3.00
2023-02-15T07:52:52.888Z,3.01
2023-02-15T07:55:20.855Z,3.04
2023-02-15T07:57:50.715Z,3.08
2023-02-15T08:00:20.951Z,3.11
2023-02-15T08:02:50.736Z,3.15
2023-02-15T08:05:18.689Z,3.20
2023-02-15T08:07:46.797Z,3.26
2023-02-15T08:10:14.663Z,3.31
2023-02-15T08:12:42.499Z,3.37
2023-02-15T08:15:10.460Z,3.41
2023-02-15T08:17:38.352Z,3.44
2023-02-15T08:20:06.766Z,3.46
2023-02-15T08:22:34.727Z,3.50
2023-02-15T08:25:02.564Z,3.55
2023-02-15T08:27:30.392Z,3.59
2023-02-15T08:29:58.270Z,3.63
2023-02-15T08:32:26.466Z,3.67
2023-02-15T08:34:54.391Z,3.73
2023-02-15T08:37:22.161Z,3.79
2023-02-15T08:39:50.545Z,3.84
2023-02-15T08:42:18.603Z,3.88
2023-02-15T08:44:46.807Z,3.94
2023-02-15T08:47:15.507Z,3.99
2023-02-15T08:49:43.292Z,4.03
2023-02-15T08:52:11.125Z,4.08
2023-02-15T08:54:38.955Z,4.13
2023-02-15T08:57:07.024Z,4.17
2023-02-15T08:59:34.933Z,4.23
2023-02-15T09:02:03.104Z,4.28
2023-02-15T09:04:30.974Z,4.37
2023-02-15T09:06:58.817Z,4.45
2023-02-15T09:09:26.768Z,4.54
2023-02-15T09:11:59.218Z,4.66
2023-02-15T09:14:28.449Z,4.78
2023-02-15T09:16:56.854Z,4.90
2023-02-15T09:19:25.662Z,5.01
2023-02-15T09:21:54.332Z,5.14
2023-02-15T09:24:22.442Z,5.25
2023-02-15T09:26:50.474Z,5.34
2023-02-15T09:29:19.611Z,5.42
2023-02-15T09:31:50.043Z,5.48
2023-02-15T09:34:21.394Z,5.61
2023-02-15T09:36:49.828Z,5.74
2023-02-15T09:39:23.734Z,5.84
2023-02-15T09:42:19.422Z,5.91
2023-02-15T09:45:02.446Z,6.04
2023-02-15T09:47:58.796Z,6.22
2023-02-15T09:50:26.765Z,6.55
2023-02-15T09:53:16.001Z,6.84
2023-02-15T09:56:01.869Z,7.01
2023-02-15T09:58:33.145Z,7.11
2023-02-15T10:01:26.105Z,7.36
2023-02-15T10:04:03.021Z,7.90
2023-02-15T10:06:37.564Z,8.47
2023-02-15T10:09:11.475Z,8.96
2023-02-15T10:12:00.917Z,9.39
2023-02-15T10:14:47.742Z,9.83
2023-02-15T10:17:27.957Z,10.27
2023-02-15T10:20:23.631Z,10.66
2023-02-15T10:23:09.927Z,11.07
2023-02-15T10:25:56.229Z,11.48
2023-02-15T10:28:30.450Z,11.92
2023-02-15T10:31:13.830Z,12.43
2023-02-15T10:33:43.156Z,12.84
2023-02-15T10:36:49.602Z,13.04
2023-02-15T10:39:33.216Z,13.42
2023-02-15T10:42:12.408Z,13.77
2023-02-15T10:44:58.590Z,14.18
2023-02-15T10:47:26.381Z,14.60
2023-02-15T10:50:22.002Z,14.98
2023-02-15T10:53:17.586Z,15.57
2023-02-15T10:55:56.565Z,16.02
2023-02-15T10:58:35.988Z,16.32
2023-02-15T11:01:11.343Z,16.62
2023-02-15T11:04:13.721Z,16.97
2023-02-15T11:07:15.673Z,17.23
2023-02-15T11:10:06.795Z,17.66
2023-02-15T11:12:35.362Z,18.13
2023-02-15T11:15:14.191Z,18.54
2023-02-15T11:17:58.403Z,18.89
2023-02-15T11:20:39.589Z,19.15
2023-02-15T11:23:16.685Z,19.39
2023-02-15T11:25:48.249Z,19.80
2023-02-15T11:28:40.557Z,20.17
2023-02-15T11:31:19.480Z,20.65
2023-02-15T11:33:52.429Z,21.10
2023-02-15T11:36:28.171Z,21.36
2023-02-15T11:39:17.382Z,21.73
2023-02-15T11:41:53.392Z,22.10
2023-02-15T11:44:24.098Z,22.45
2023-02-15T11:46:52.046Z,22.73
2023-02-15T11:49:24.599Z,23.06
2023-02-15T11:51:54.096Z,23.43
2023-02-15T11:54:28.586Z,23.69
2023-02-15T11:57:02.589Z,23.95
2023-02-15T11:59:38.606Z,24.15
2023-02-15T12:02:17.915Z,24.45
2023-02-15T12:04:53.455Z,24.72
2023-02-15T12:07:29.619Z,24.88
2023-02-15T12:10:21.539Z,24.95
2023-02-15T12:12:49.445Z,25.09
2023-02-15T12:15:32.176Z,25.50
2023-02-15T12:18:00.217Z,25.88
2023-02-15T12:20:33.779Z,26.24
2023-02-15T12:23:12.929Z,26.75
2023-02-15T12:25:53.410Z,27.13
2023-02-15T12:28:41.322Z,27.31
2023-02-15T12:31:27.847Z,27.31
2023-02-15T12:33:58.663Z,27.47
2023-02-15T12:36:31.494Z,27.43
2023-02-15T12:39:18.018Z,27.50
2023-02-15T12:41:56.863Z,27.84
2023-02-15T12:44:30.235Z,28.05
2023-02-15T12:47:04.823Z,28.05
2023-02-15T12:49:35.198Z,28.00
2023-02-15T12:52:19.169Z,28.03
2023-02-15T12:54:48.345Z,27.98
2023-02-15T12:57:22.047Z,28.02
2023-02-15T12:59:56.836Z,27.97
2023-02-15T13:02:28.821Z,28.14
2023-02-15T13:04:58.665Z,28.13
2023-02-15T13:07:31.747Z,27.00
2023-02-15T13:10:00.126Z,25.20
2023-02-15T13:12:31.368Z,23.50
2023-02-15T13:14:59.830Z,21.83
2023-02-15T13:17:31.498Z,20.40
2023-02-15T13:20:06.314Z,19.05
2023-02-15T13:22:44.379Z,17.76
2023-02-15T13:25:27.915Z,16.70
2023-02-15T13:28:01.266Z,15.75
2023-02-15T13:30:39.124Z,14.99
2023-02-15T13:33:15.596Z,14.19
2023-02-15T13:35:57.531Z,13.47
2023-02-15T13:38:58.753Z,12.88
2023-02-15T13:41:35.603Z,12.28
2023-02-15T13:44:17.315Z,11.86
2023-02-15T13:46:45.215Z,11.51
2023-02-15T13:49:33.534Z,11.19
2023-02-15T13:52:08.062Z,10.87
2023-02-15T13:54:51.441Z,10.62
2023-02-15T13:57:33.756Z,10.40
2023-02-15T14:00:23.470Z,10.19
2023-02-15T14:03:36.836Z,10.01
2023-02-15T14:06:13.667Z,9.80
2023-02-15T14:09:00.298Z,9.64
2023-02-15T14:11:45.537Z,9.52
2023-02-15T14:14:28.686Z,9.41
2023-02-15T14:17:06.540Z,9.31
2023-02-15T14:19:44.240Z,9.21
2023-02-15T14:22:23.244Z,9.12
2023-02-15T14:25:16.074Z,9.05
2023-02-15T14:27:57.413Z,8.97
2023-02-15T14:30:33.823Z,8.91
2023-02-15T14:33:23.880Z,8.84
2023-02-15T14:35:52.216Z,8.76
2023-02-15T14:38:38.676Z,8.70
2023-02-15T14:41:28.758Z,8.65
2023-02-15T14:44:02.432Z,8.59
2023-02-15T14:46:39.313Z,8.54
2023-02-15T14:49:22.328Z,8.47
2023-02-15T14:51:50.173Z,8.40
2023-02-15T14:54:18.008Z,8.35
2023-02-15T14:56:47.682Z,8.30
2023-02-15T14:59:24.843Z,8.24
2023-02-15T15:02:24.097Z,8.17
2023-02-15T15:05:03.851Z,8.10
2023-02-15T15:07:44.266Z,8.03
2023-02-15T15:10:16.204Z,7.95
2023-02-15T15:12:44.838Z,7.88
2023-02-15T15:15:45.860Z,7.79
2023-02-15T15:18:46.123Z,7.69
2023-02-15T15:21:51.299Z,7.60
2023-02-15T15:24:54.161Z,7.48
2023-02-15T15:27:40.873Z,7.32
2023-02-15T15:30:15.145Z,7.19
2023-02-15T15:32:46.850Z,7.06
2023-02-15T15:35:26.522Z,6.99
2023-02-15T15:38:26.953Z,6.94
2023-02-15T15:41:03.751Z,6.88
2023-02-15T15:43:50.031Z,6.81
2023-02-15T15:46:29.891Z,6.73
2023-02-15T15:49:03.602Z,6.63
2023-02-15T15:51:33.675Z,6.55
2023-02-15T15:54:03.391Z,6.48
2023-02-15T15:56:36.955Z,6.38
2023-02-15T15:59:08.854Z,6.29
2023-02-15T16:01:43.509Z,6.20
2023-02-15T16:04:14.107Z,6.12
2023-02-15T16:06:42.200Z,6.04
2023-02-15T16:09:16.813Z,5.95
2023-02-15T16:11:46.792Z,5.87
2023-02-15T16:14:36.966Z,5.80
2023-02-15T16:17:15.984Z,5.72
2023-02-15T16:19:44.701Z,5.65
2023-02-15T16:22:20.502Z,5.58
2023-02-15T16:24:50.952Z,5.51
2023-02-15T16:27:33.859Z,5.45
2023-02-15T16:30:38.899Z,5.38
2023-02-15T16:33:09.361Z,5.30
2023-02-15T16:35:40.711Z,5.23
2023-02-15T16:38:11.727Z,5.17
2023-02-15T16:40:47.224Z,5.10
2023-02-15T16:43:21.383Z,5.04
2023-02-15T16:45:49.708Z,4.98
2023-02-15T16:48:26.948Z,4.93
2023-02-15T16:50:57.975Z,4.87
2023-02-15T16:53:29.550Z,4.81
2023-02-15T16:56:04.933Z,4.74
2023-02-15T16:58:43.201Z,4.67
2023-02-15T17:01:15.677Z,4.61
2023-02-15T17:03:43.936Z,4.54
2023-02-15T17:06:28.408Z,4.49
2023-02-15T17:09:14.612Z,4.43
2023-02-15T17:11:44.311Z,4.36
2023-02-15T17:14:15.344Z,4.30
2023-02-15T17:16:50.497Z,4.24
2023-02-15T17:19:26.616Z,4.19
2023-02-15T17:21:59.484Z,4.13
2023-02-15T17:24:44.198Z,4.08
2023-02-15T17:27:29.145Z,4.02
2023-02-15T17:30:03.070Z,3.96
2023-02-15T17:32:33.753Z,3.91
2023-02-15T17:35:19.843Z,3.86
2023-02-15T17:37:50.803Z,3.80
2023-02-15T17:40:30.308Z,3.74
2023-02-15T17:42:58.363Z,3.67
2023-02-15T17:45:38.508Z,3.63
2023-02-15T17:48:07.201Z,3.57
2023-02-15T17:50:36.379Z,3.52
2023-02-15T17:53:08.809Z,3.46
2023-02-15T17:55:36.718Z,3.42
2023-02-15T17:58:16.767Z,3.37
2023-02-15T18:01:11.526Z,3.31
2023-02-15T18:03:46.629Z,3.25
2023-02-15T18:06:14.976Z,3.20
2023-02-15T18:08:43.049Z,3.16
2023-02-15T18:11:11.445Z,3.11
2023-02-15T18:13:39.709Z,3.07
2023-02-15T18:16:15.136Z,3.01
2023-02-15T18:18:44.860Z,2.96
2023-02-15T18:21:13.436Z,2.91
2023-02-15T18:23:41.614Z,2.86
2023-02-15T18:26:17.893Z,2.82
2023-02-15T18:28:46.183Z,2.77
2023-02-15T18:31:15.073Z,2.72
2023-02-15T18:33:54.044Z,2.67
2023-02-15T18:36:29.190Z,2.62
2023-02-15T18:38:57.438Z,2.57
2023-02-15T18:41:25.708Z,2.55
2023-02-15T18:43:53.802Z,2.51
2023-02-15T18:46:22.250Z,2.47
2023-02-15T18:48:51.759Z,2.44
2023-02-15T18:51:45.689Z,2.43
2023-02-15T18:54:18.672Z,2.40
2023-02-15T18:56:53.341Z,2.36
2023-02-15T18:59:22.663Z,2.33
2023-02-15T19:01:51.610Z,2.29
2023-02-15T19:04:20.380Z,2.26
2023-02-15T19:06:49.521Z,2.21
2023-02-15T19:09:21.845Z,2.18
2023-02-15T19:11:57.129Z,2.15
2023-02-15T19:14:34.378Z,2.11
2023-02-15T19:17:18.144Z,2.07
2023-02-15T19:19:49.102Z,2.02
2023-02-15T19:22:31.140Z,1.99
2023-02-15T19:25:06.639Z,1.95
2023-02-15T19:27:39.568Z,1.92
2023-02-15T19:30:20.648Z,1.89
2023-02-15T19:32:51.255Z,1.86
2023-02-15T19:36:18.538Z,1.83
2023-02-15T19:38:52.029Z,1.79
2023-02-15T19:41:32.956Z,1.75
2023-02-15T19:44:03.383Z,1.70
2023-02-15T19:46:37.073Z,1.68
2023-02-15T19:49:07.730Z,1.65
2023-02-15T19:51:39.161Z,1.62
2023-02-15T19:54:30.973Z,1.62
2023-02-15T19:57:04.611Z,1.63
2023-02-15T19:59:35.912Z,1.63
2023-02-15T20:02:09.540Z,1.62
2023-02-15T20:04:41.741Z,1.63
2023-02-15T20:07:27.135Z,1.67
2023-02-15T20:09:57.611Z,1.67
2023-02-15T20:12:28.864Z,1.61
2023-02-15T20:15:00.265Z,1.51
2023-02-15T20:17:31.654Z,1.42
2023-02-15T20:20:02.146Z,1.33
2023-02-15T20:22:34.096Z,1.25
2023-02-15T20:25:06.957Z,1.20
2023-02-15T20:27:35.960Z,1.20
2023-02-15T20:30:07.999Z,1.20
2023-02-15T20:32:39.476Z,1.21
2023-02-15T20:35:13.070Z,1.23
2023-02-15T20:37:42.336Z,1.23
2023-02-15T20:40:26.434Z,1.27
2023-02-15T20:42:57.595Z,1.29
2023-02-15T20:45:31.743Z,1.30
2023-02-15T20:48:03.362Z,1.31
2023-02-15T20:50:34.410Z,1.32
2023-02-15T20:53:03.998Z,1.31
2023-02-15T20:55:34.268Z,1.29
2023-02-15T20:58:32.712Z,1.27
2023-02-15T21:01:03.122Z,1.26
2023-02-15T21:03:32.343Z,1.25
2023-02-15T21:06:00.749Z,1.22
2023-02-15T21:08:30.765Z,1.20
2023-02-15T21:11:00.765Z,1.17
2023-02-15T21:13:35.417Z,1.14
2023-02-15T21:16:03.868Z,1.11
2023-02-15T21:18:34.064Z,1.09
2023-02-15T21:21:07.902Z,1.08
2023-02-15T21:23:42.717Z,1.07
2023-02-15T21:26:19.528Z,1.06
2023-02-15T21:28:48.579Z,1.03
2023-02-15T21:31:19.289Z,1.00
2023-02-15T21:33:47.618Z,0.95
2023-02-15T21:36:19.741Z,0.91
2023-02-15T21:38:48.803Z,0.88
2023-02-15T21:41:19.090Z,0.85
2023-02-15T21:43:47.044Z,0.80
2023-02-15T21:46:19.756Z,0.75
2023-02-15T21:48:47.888Z,0.69
2023-02-15T21:51:15.877Z,0.62
2023-02-15T21:53:45.297Z,0.55
2023-02-15T21:56:19.268Z,0.49
2023-02-15T21:58:48.092Z,0.41
2023-02-15T22:01:28.951Z,0.36
2023-02-15T22:03:59.068Z,0.31
2023-02-15T22:06:26.993Z,0.26
2023-02-15T22:08:54.935Z,0.23
2023-02-15T22:11:22.841Z,0.22
2023-02-15T22:13:51.107Z,0.22
2023-02-15T22:16:22.163Z,0.23
2023-02-15T22:18:50.147Z,0.25
2023-02-15T22:21:18.019Z,0.28
2023-02-15T22:23:46.039Z,0.31
2023-02-15T22:26:27.703Z,0.32
2023-02-15T22:28:56.996Z,0.32
2023-02-15T22:31:25.015Z,0.32
2023-02-15T22:33:53.091Z,0.32
2023-02-15T22:36:24.155Z,0.32
2023-02-15T22:38:52.957Z,0.30
2023-02-15T22:41:24.243Z,0.31
2023-02-15T22:43:52.215Z,0.29
2023-02-15T22:46:23.723Z,0.29
2023-02-15T22:48:51.983Z,0.28
2023-02-15T22:51:22.300Z,0.28
2023-02-15T22:53:50.824Z,0.26
2023-02-15T22:56:23.350Z,0.26
2023-02-15T22:58:51.622Z,0.27
2023-02-15T23:01:34.360Z,0.28
2023-02-15T23:04:03.924Z,0.29
2023-02-15T23:06:32.551Z,0.29
2023-02-15T23:09:00.551Z,0.29
2023-02-15T23:11:28.942Z,0.29
2023-02-15T23:13:56.856Z,0.28
2023-02-15T23:16:24.796Z,0.27
2023-02-15T23:18:52.688Z,0.26
2023-02-15T23:21:33.597Z,0.26
2023-02-15T23:24:30.938Z,0.25
2023-02-15T23:26:59.066Z,0.22
2023-02-15T23:29:26.940Z,0.21
2023-02-15T23:31:54.946Z,0.18
2023-02-15T23:34:28.659Z,0.13
2023-02-15T23:36:57.189Z,0.05
2023-02-15T23:39:27.791Z,-0.01
2023-02-15T23:41:55.890Z,-0.06
2023-02-15T23:44:24.030Z,-0.11
2023-02-15T23:46:51.990Z,-0.16
2023-02-15T23:49:20.089Z,-0.20
2023-02-15T23:51:53.315Z,-0.22
2023-02-15T23:54:24.103Z,-0.26
2023-02-15T23:56:55.137Z,-0.30
2023-02-15T23:59:26.353Z,-0.34
